createdAt,value
2022-12-15T00:02:03.834Z,85.18
2022-12-15T00:04:54.170Z,84.74
2022-12-15T00:07:44.501Z,84.34
2022-12-15T00:10:35.328Z,84.21
2022-12-15T00:13:32.286Z,84.68
2022-12-15T00:16:23.622Z,83.85
2022-12-15T00:19:13.851Z,84.59
2022-12-15T00:22:04.019Z,84.38
2022-12-15T00:24:54.116Z,84.95
2022-12-15T00:27:44.861Z,84.49
2022-12-15T00:30:35.683Z,84.46
2022-12-15T00:33:30.533Z,84.90
2022-12-15T00:36:21.737Z,84.93
2022-12-15T00:38:53.799Z,84.26
2022-12-15T00:41:25.839Z,83.73
2022-12-15T00:43:57.839Z,84.09
2022-12-15T00:47:02.450Z,84.28
2022-12-15T00:49:53.146Z,84.39
2022-12-15T00:52:43.717Z,84.58
2022-12-15T00:55:34.619Z,84.91
2022-12-15T00:58:24.998Z,84.55
2022-12-15T01:01:15.840Z,85.03
2022-12-15T01:04:06.050Z,84.87
2022-12-15T01:06:57.214Z,85.00
2022-12-15T01:09:47.798Z,84.83
2022-12-15T01:12:38.602Z,84.78
2022-12-15T01:15:28.808Z,84.54
2022-12-15T01:18:19.352Z,84.76
2022-12-15T01:21:04.993Z,84.64
2022-12-15T01:23:38.204Z,84.53
2022-12-15T01:26:10.246Z,84.64
2022-12-15T01:28:42.217Z,84.35
2022-12-15T01:31:14.702Z,84.52
2022-12-15T01:33:47.509Z,84.40
2022-12-15T01:36:19.506Z,84.30
2022-12-15T01:38:54.364Z,84.37
2022-12-15T01:41:26.937Z,84.91
2022-12-15T01:44:20.845Z,84.91
2022-12-15T01:46:56.269Z,84.72
2022-12-15T01:49:30.180Z,84.91
2022-12-15T01:52:04.436Z,84.10
2022-12-15T01:54:43.459Z,83.88
2022-12-15T01:57:22.926Z,84.16
2022-12-15T01:59:59.282Z,84.27
2022-12-15T02:02:38.287Z,84.80
2022-12-15T02:05:12.287Z,85.30
2022-12-15T02:07:44.229Z,85.43
2022-12-15T02:10:16.210Z,85.41
2022-12-15T02:13:11.928Z,85.48
2022-12-15T02:15:59.901Z,85.49
2022-12-15T02:18:45.839Z,85.47
2022-12-15T02:21:39.094Z,85.50
2022-12-15T02:24:26.091Z,86.03
2022-12-15T02:27:21.621Z,86.34
2022-12-15T02:31:13.073Z,85.96
2022-12-15T02:33:52.884Z,86.42
2022-12-15T02:36:33.732Z,86.73
2022-12-15T02:39:06.952Z,86.89
2022-12-15T02:41:47.484Z,86.86
2022-12-15T02:44:43.668Z,86.87
2022-12-15T02:47:54.216Z,86.86
2022-12-15T02:50:30.388Z,87.22
2022-12-15T02:53:42.572Z,87.26
2022-12-15T02:56:26.689Z,87.06
2022-12-15T02:59:11.527Z,86.94
2022-12-15T03:02:02.415Z,86.90
2022-12-15T03:04:34.747Z,86.64
2022-12-15T03:07:10.557Z,86.46
2022-12-15T03:09:42.491Z,86.31
2022-12-15T03:12:14.437Z,86.20
2022-12-15T03:14:46.344Z,86.22
2022-12-15T03:17:18.398Z,86.26
2022-12-15T03:19:50.616Z,86.56
2022-12-15T03:22:22.630Z,87.02
2022-12-15T03:24:54.624Z,87.29
2022-12-15T03:27:26.761Z,87.72
2022-12-15T03:29:58.755Z,88.24
2022-12-15T03:32:31.838Z,87.88
2022-12-15T03:35:04.197Z,87.89
2022-12-15T03:37:36.167Z,87.85
2022-12-15T03:40:09.477Z,87.64
2022-12-15T03:42:48.651Z,87.81
2022-12-15T03:45:24.278Z,87.70
2022-12-15T03:47:58.331Z,88.10
2022-12-15T03:50:30.445Z,88.37
2022-12-15T03:53:04.395Z,88.33
2022-12-15T03:55:36.413Z,88.11
2022-12-15T03:58:08.419Z,88.18
2022-12-15T04:00:40.423Z,87.89
2022-12-15T04:03:12.491Z,88.42
2022-12-15T04:05:44.574Z,88.85
2022-12-15T04:08:16.746Z,89.18
2022-12-15T04:10:48.749Z,89.11
2022-12-15T04:13:20.787Z,89.57
2022-12-15T04:15:52.776Z,89.61
2022-12-15T04:18:24.924Z,89.82
2022-12-15T04:20:56.996Z,89.72
2022-12-15T04:23:29.303Z,89.30
2022-12-15T04:26:20.035Z,89.35
2022-12-15T04:29:10.317Z,88.97
2022-12-15T04:32:01.455Z,88.96
2022-12-15T04:34:51.854Z,89.66
2022-12-15T04:37:42.199Z,89.92
2022-12-15T04:40:32.806Z,89.74
2022-12-15T04:43:23.427Z,90.11
2022-12-15T04:46:14.283Z,90.03
2022-12-15T04:49:04.598Z,90.24
2022-12-15T04:51:55.314Z,90.11
2022-12-15T04:54:45.755Z,89.91
2022-12-15T04:57:36.344Z,89.93
2022-12-15T05:00:27.715Z,90.25
2022-12-15T05:03:27.535Z,90.54
2022-12-15T05:06:17.888Z,90.78
2022-12-15T05:09:08.561Z,90.39
2022-12-15T05:11:58.841Z,90.52
2022-12-15T05:14:49.452Z,90.23
2022-12-15T05:17:41.852Z,90.68
2022-12-15T05:20:32.832Z,90.43
2022-12-15T05:23:23.620Z,90.53
2022-12-15T05:26:14.120Z,90.64
2022-12-15T05:29:04.296Z,90.46
2022-12-15T05:31:55.099Z,90.98
2022-12-15T05:34:33.684Z,91.04
2022-12-15T05:37:08.013Z,91.59
2022-12-15T05:39:39.965Z,92.11
2022-12-15T05:42:11.989Z,92.73
2022-12-15T05:44:44.114Z,92.76
2022-12-15T05:47:16.092Z,92.76
2022-12-15T05:49:48.415Z,92.74
2022-12-15T05:52:20.394Z,92.56
2022-12-15T05:54:52.360Z,92.53
2022-12-15T05:57:24.458Z,92.63
2022-12-15T05:59:56.402Z,92.43
2022-12-15T06:02:31.931Z,92.77
2022-12-15T06:05:04.303Z,93.04
2022-12-15T06:07:37.593Z,92.58
2022-12-15T06:10:10.716Z,93.05
2022-12-15T06:12:42.657Z,92.93
2022-12-15T06:15:14.726Z,92.66
2022-12-15T06:17:49.513Z,93.04
2022-12-15T06:20:21.960Z,93.00
2022-12-15T06:22:53.891Z,92.63
2022-12-15T06:25:25.866Z,92.30
2022-12-15T06:28:01.744Z,92.19
2022-12-15T06:30:34.084Z,92.98
2022-12-15T06:33:06.051Z,92.89
2022-12-15T06:35:38.706Z,93.11
2022-12-15T06:38:10.707Z,93.01
2022-12-15T06:40:42.691Z,93.30
2022-12-15T06:43:14.661Z,93.26
2022-12-15T06:45:51.541Z,93.20
2022-12-15T06:48:25.356Z,93.04
2022-12-15T06:50:57.740Z,92.87
2022-12-15T06:53:30.156Z,92.72
2022-12-15T06:56:05.566Z,92.60
2022-12-15T06:58:37.595Z,93.25
2022-12-15T07:01:09.726Z,93.35
2022-12-15T07:03:42.711Z,93.44
2022-12-15T07:06:16.807Z,93.72
2022-12-15T07:08:56.724Z,93.76
2022-12-15T07:11:28.741Z,93.33
2022-12-15T07:14:00.812Z,93.35
2022-12-15T07:16:33.338Z,92.96
2022-12-15T07:19:05.456Z,92.78
2022-12-15T07:21:37.386Z,92.89
2022-12-15T07:24:13.214Z,92.83
2022-12-15T07:26:46.228Z,93.13
2022-12-15T07:29:23.467Z,92.48
2022-12-15T07:31:56.081Z,92.52
2022-12-15T07:34:28.117Z,92.51
2022-12-15T07:37:00.055Z,93.36
2022-12-15T07:39:32.056Z,93.35
2022-12-15T07:42:04.139Z,93.41
2022-12-15T07:44:36.240Z,93.25
2022-12-15T07:47:08.295Z,93.49
2022-12-15T07:49:40.219Z,93.62
2022-12-15T07:52:14.217Z,93.51
2022-12-15T07:54:46.209Z,93.34
2022-12-15T07:57:18.749Z,93.35
2022-12-15T07:59:51.637Z,93.33
2022-12-15T08:02:23.708Z,93.54
2022-12-15T08:04:55.813Z,92.92
2022-12-15T08:07:27.792Z,93.06
2022-12-15T08:09:59.725Z,92.67
2022-12-15T08:12:31.756Z,91.85
2022-12-15T08:15:03.949Z,91.71
2022-12-15T08:17:35.876Z,91.15
2022-12-15T08:20:10.203Z,90.85
2022-12-15T08:22:42.341Z,91.08
2022-12-15T08:25:14.459Z,90.80
2022-12-15T08:27:46.429Z,90.84
2022-12-15T08:30:19.214Z,89.47
2022-12-15T08:32:52.240Z,89.94
2022-12-15T08:35:54.478Z,89.87
2022-12-15T08:38:16.470Z,89.40
2022-12-15T08:40:48.466Z,89.60
2022-12-15T08:43:20.662Z,89.90
2022-12-15T08:45:53.599Z,89.89
2022-12-15T08:48:25.620Z,89.62
2022-12-15T08:50:59.247Z,88.69
2022-12-15T08:53:32.184Z,88.43
2022-12-15T08:56:07.493Z,87.87
2022-12-15T08:58:40.229Z,87.09
2022-12-15T09:01:23.454Z,87.19
2022-12-15T09:03:57.006Z,87.29
2022-12-15T09:06:32.277Z,86.79
2022-12-15T09:09:08.579Z,86.83
2022-12-15T09:11:40.702Z,86.83
2022-12-15T09:14:12.761Z,86.92
2022-12-15T09:16:44.951Z,86.32
2022-12-15T09:19:16.976Z,86.66
2022-12-15T09:21:49.570Z,87.04
2022-12-15T09:24:32.205Z,86.37
2022-12-15T09:27:06.644Z,86.45
2022-12-15T09:29:38.690Z,86.31
2022-12-15T09:32:14.035Z,86.06
2022-12-15T09:34:46.450Z,86.01
2022-12-15T09:37:19.272Z,85.92
2022-12-15T09:39:51.209Z,85.56
2022-12-15T09:42:28.173Z,84.15
2022-12-15T09:45:14.399Z,83.82
2022-12-15T09:48:09.600Z,84.02
2022-12-15T09:50:44.925Z,83.39
2022-12-15T09:53:53.119Z,83.26
2022-12-15T09:56:28.563Z,83.68
2022-12-15T09:59:26.629Z,83.97
2022-12-15T10:02:25.820Z,83.97
2022-12-15T10:05:16.751Z,84.68
2022-12-15T10:07:50.734Z,85.14
2022-12-15T10:10:40.895Z,85.29
2022-12-15T10:13:23.976Z,85.22
2022-12-15T10:16:05.437Z,85.36
2022-12-15T10:19:14.579Z,84.62
2022-12-15T10:21:50.622Z,84.83
2022-12-15T10:24:59.832Z,84.39
2022-12-15T10:28:09.600Z,83.86
2022-12-15T10:31:02.462Z,84.22
2022-12-15T10:33:47.066Z,83.47
2022-12-15T10:36:22.197Z,83.39
2022-12-15T10:38:54.129Z,84.00
2022-12-15T10:41:26.483Z,84.46
2022-12-15T10:43:58.434Z,84.04
2022-12-15T10:46:32.348Z,83.79
2022-12-15T10:49:07.317Z,83.88
2022-12-15T10:51:47.667Z,83.53
2022-12-15T10:54:20.931Z,83.24
2022-12-15T10:56:59.749Z,83.13
2022-12-15T10:59:37.630Z,82.92
2022-12-15T11:02:24.513Z,82.46
2022-12-15T11:05:16.653Z,81.94
2022-12-15T11:07:52.469Z,81.81
2022-12-15T11:10:28.272Z,81.12
2022-12-15T11:13:13.731Z,81.27
2022-12-15T11:15:51.701Z,80.79
2022-12-15T11:18:55.759Z,80.74
2022-12-15T11:21:34.144Z,80.74
2022-12-15T11:24:18.627Z,80.91
2022-12-15T11:27:12.253Z,80.36
2022-12-15T11:30:05.314Z,80.11
2022-12-15T11:32:41.910Z,79.70
2022-12-15T11:35:25.780Z,80.08
2022-12-15T11:38:29.471Z,80.42
2022-12-15T11:41:17.056Z,80.05
2022-12-15T11:44:39.041Z,80.47
2022-12-15T11:47:26.413Z,80.05
2022-12-15T11:50:07.394Z,80.39
2022-12-15T11:52:54.777Z,80.12
2022-12-15T11:56:02.858Z,80.20
2022-12-15T11:59:26.369Z,80.56
2022-12-15T12:03:00.762Z,80.29
2022-12-15T12:05:32.700Z,80.30
2022-12-15T12:08:58.583Z,80.40
2022-12-15T12:11:43.689Z,80.41
2022-12-15T12:14:39.667Z,79.91
2022-12-15T12:17:31.817Z,80.28
2022-12-15T12:20:18.651Z,80.02
2022-12-15T12:23:06.102Z,79.53
2022-12-15T12:25:48.024Z,79.82
2022-12-15T12:28:42.180Z,80.45
2022-12-15T12:31:56.469Z,80.15
2022-12-15T12:35:32.248Z,79.49
2022-12-15T12:38:09.030Z,79.56
2022-12-15T12:40:40.916Z,79.46
2022-12-15T12:43:58.257Z,79.50
2022-12-15T12:46:37.474Z,79.37
2022-12-15T12:49:30.816Z,79.84
2022-12-15T12:52:06.131Z,79.89
2022-12-15T12:54:40.135Z,79.97
2022-12-15T12:57:11.982Z,80.14
2022-12-15T13:00:23.885Z,80.74
2022-12-15T13:03:30.561Z,80.34
2022-12-15T13:06:21.966Z,80.34
2022-12-15T13:08:55.894Z,80.54
2022-12-15T13:12:15.034Z,80.68
2022-12-15T13:14:55.519Z,80.54
2022-12-15T13:17:32.196Z,80.58
2022-12-15T13:20:22.445Z,80.45
2022-12-15T13:22:55.179Z,80.26
2022-12-15T13:25:41.195Z,80.29
2022-12-15T13:28:28.629Z,80.01
2022-12-15T13:31:19.658Z,80.03
2022-12-15T13:33:57.360Z,80.44
2022-12-15T13:36:38.485Z,80.58
2022-12-15T13:39:19.293Z,80.65
2022-12-15T13:42:31.428Z,80.16
2022-12-15T13:44:51.990Z,80.25
2022-12-15T13:47:30.041Z,79.84
2022-12-15T13:50:33.668Z,79.92
2022-12-15T13:53:19.504Z,79.95
2022-12-15T13:56:25.828Z,80.02
2022-12-15T13:59:07.445Z,80.33
2022-12-15T14:01:51.340Z,80.22
2022-12-15T14:04:23.677Z,79.97
2022-12-15T14:07:00.477Z,80.14
2022-12-15T14:09:39.465Z,80.29
2022-12-15T14:12:14.642Z,80.93
2022-12-15T14:14:49.349Z,80.85
2022-12-15T14:17:21.441Z,81.31
2022-12-15T14:19:53.696Z,81.69
2022-12-15T14:22:30.075Z,81.88
2022-12-15T14:25:31.296Z,82.01
2022-12-15T14:28:05.510Z,82.87
2022-12-15T14:30:41.394Z,83.29
2022-12-15T14:33:16.456Z,82.98
2022-12-15T14:35:51.959Z,83.13
2022-12-15T14:38:46.133Z,83.12
2022-12-15T14:41:27.809Z,82.91
2022-12-15T14:44:37.153Z,83.74
2022-12-15T14:47:03.860Z,83.80
2022-12-15T14:49:43.526Z,83.68
2022-12-15T14:52:33.306Z,83.84
2022-12-15T14:55:37.717Z,83.85
2022-12-15T14:58:36.415Z,83.67
2022-12-15T15:01:36.370Z,84.33
2022-12-15T15:04:32.670Z,84.58
2022-12-15T15:07:18.610Z,84.87
2022-12-15T15:09:51.417Z,85.36
2022-12-15T15:12:29.225Z,85.71
2022-12-15T15:15:07.370Z,85.64
2022-12-15T15:17:55.853Z,85.65
2022-12-15T15:20:37.811Z,85.76
2022-12-15T15:23:22.093Z,85.84
2022-12-15T15:25:57.209Z,86.40
2022-12-15T15:28:38.634Z,86.63
2022-12-15T15:31:32.682Z,87.07
2022-12-15T15:34:09.122Z,87.08
2022-12-15T15:36:41.493Z,87.11
2022-12-15T15:39:16.053Z,87.19
2022-12-15T15:41:47.989Z,87.05
2022-12-15T15:44:22.323Z,87.20
2022-12-15T15:46:55.230Z,87.58
2022-12-15T15:49:27.506Z,87.74
2022-12-15T15:51:59.723Z,87.81
2022-12-15T15:54:38.081Z,87.55
2022-12-15T15:57:15.684Z,88.09
2022-12-15T15:59:47.915Z,88.01
2022-12-15T16:02:20.084Z,88.00
2022-12-15T16:04:52.273Z,88.32
2022-12-15T16:07:28.789Z,87.98
2022-12-15T16:10:00.928Z,88.25
2022-12-15T16:12:54.762Z,87.91
2022-12-15T16:15:31.710Z,88.15
2022-12-15T16:18:04.229Z,88.30
2022-12-15T16:20:38.439Z,88.54
2022-12-15T16:23:20.843Z,88.33
2022-12-15T16:25:56.864Z,88.00
2022-12-15T16:28:31.921Z,88.02
2022-12-15T16:31:04.246Z,88.26
2022-12-15T16:33:36.236Z,88.31
2022-12-15T16:36:14.242Z,88.65
2022-12-15T16:38:46.236Z,88.86
2022-12-15T16:41:18.980Z,88.96
2022-12-15T16:43:50.923Z,88.81
2022-12-15T16:46:22.944Z,89.15
2022-12-15T16:48:55.098Z,89.35
2022-12-15T16:51:39.238Z,89.59
2022-12-15T16:54:22.998Z,89.71
2022-12-15T16:56:57.775Z,89.98
2022-12-15T16:59:34.312Z,90.55
2022-12-15T17:02:27.791Z,90.93
2022-12-15T17:05:00.013Z,91.25
2022-12-15T17:07:32.273Z,91.23
2022-12-15T17:10:05.389Z,91.15
2022-12-15T17:12:37.746Z,91.00
2022-12-15T17:15:26.438Z,90.81
2022-12-15T17:17:58.996Z,90.25
2022-12-15T17:20:31.677Z,90.28
2022-12-15T17:23:08.990Z,90.33
2022-12-15T17:28:37.247Z,90.46
2022-12-15T17:31:21.960Z,90.36
2022-12-15T17:33:54.106Z,90.28
2022-12-15T17:36:28.524Z,90.30
2022-12-15T17:39:02.048Z,90.26
2022-12-15T17:41:58.878Z,90.41
2022-12-15T17:44:38.513Z,90.67
2022-12-15T17:47:10.832Z,90.77
2022-12-15T17:49:43.976Z,90.88
2022-12-15T17:52:23.361Z,91.17
2022-12-15T17:54:56.898Z,91.02
2022-12-15T17:57:31.843Z,91.51
2022-12-15T18:00:19.281Z,91.47
2022-12-15T18:02:52.868Z,91.54
2022-12-15T18:05:30.181Z,91.49
2022-12-15T18:08:10.732Z,91.36
2022-12-15T18:10:43.909Z,90.87
2022-12-15T18:13:20.736Z,90.73
2022-12-15T18:15:53.755Z,90.59
2022-12-15T18:18:26.093Z,90.54
2022-12-15T18:21:03.512Z,90.68
2022-12-15T18:23:35.875Z,90.99
2022-12-15T18:26:13.682Z,90.83
2022-12-15T18:28:45.730Z,90.71
2022-12-15T18:31:28.409Z,90.87
2022-12-15T18:34:04.711Z,90.59
2022-12-15T18:36:37.058Z,90.47
2022-12-15T18:39:23.623Z,90.93
2022-12-15T18:41:56.109Z,91.36
2022-12-15T18:44:31.531Z,91.21
2022-12-15T18:47:20.398Z,91.18
2022-12-15T18:49:52.721Z,91.18
2022-12-15T18:52:30.048Z,91.26
2022-12-15T18:55:16.468Z,90.70
2022-12-15T18:57:51.102Z,90.99
2022-12-15T19:00:28.496Z,91.11
2022-12-15T19:03:00.863Z,91.16
2022-12-15T19:05:32.981Z,91.44
2022-12-15T19:08:17.034Z,91.38
2022-12-15T19:10:56.538Z,91.11
2022-12-15T19:13:33.235Z,91.27
2022-12-15T19:16:12.994Z,91.82
2022-12-15T19:19:03.961Z,91.73
2022-12-15T19:21:57.011Z,91.55
2022-12-15T19:24:50.301Z,91.71
2022-12-15T19:27:26.416Z,90.92
2022-12-15T19:29:58.639Z,91.28
2022-12-15T19:32:30.704Z,91.59
2022-12-15T19:35:03.127Z,91.38
2022-12-15T19:37:36.454Z,91.00
2022-12-15T19:40:18.182Z,90.79
2022-12-15T19:42:50.878Z,90.86
2022-12-15T19:45:30.638Z,90.34
2022-12-15T19:48:02.828Z,89.86
2022-12-15T19:50:37.041Z,90.15
2022-12-15T19:53:24.349Z,90.53
2022-12-15T19:56:01.438Z,90.58
2022-12-15T19:58:35.924Z,90.82
2022-12-15T20:01:17.278Z,91.29
2022-12-15T20:03:52.245Z,91.25
2022-12-15T20:06:27.367Z,91.39
2022-12-15T20:09:00.013Z,91.17
2022-12-15T20:11:34.545Z,91.00
2022-12-15T20:14:13.140Z,90.54
2022-12-15T20:16:45.307Z,90.63
2022-12-15T20:19:17.455Z,90.74
2022-12-15T20:21:49.443Z,90.75
2022-12-15T20:24:21.847Z,90.40
2022-12-15T20:26:53.878Z,89.70
2022-12-15T20:29:32.169Z,89.69
2022-12-15T20:32:15.295Z,89.52
2022-12-15T20:34:48.367Z,89.71
2022-12-15T20:37:29.698Z,89.12
2022-12-15T20:40:01.963Z,88.52
2022-12-15T20:42:33.925Z,88.09
2022-12-15T20:45:06.913Z,88.31
2022-12-15T20:47:41.800Z,88.33
2022-12-15T20:50:41.027Z,87.88
2022-12-15T20:53:26.015Z,88.26
2022-12-15T20:55:58.079Z,87.60
2022-12-15T20:58:33.373Z,87.76
2022-12-15T21:01:24.614Z,87.68
2022-12-15T21:03:58.409Z,87.75
2022-12-15T21:06:30.782Z,88.05
2022-12-15T21:09:02.867Z,87.82
2022-12-15T21:11:40.818Z,87.71
2022-12-15T21:14:24.094Z,88.07
2022-12-15T21:16:56.709Z,87.99
2022-12-15T21:19:29.317Z,88.42
2022-12-15T21:22:01.563Z,88.66
2022-12-15T21:24:33.781Z,88.47
2022-12-15T21:27:09.332Z,88.25
2022-12-15T21:29:43.288Z,88.17
2022-12-15T21:32:17.255Z,87.90
2022-12-15T21:34:50.003Z,87.98
2022-12-15T21:37:27.330Z,88.05
2022-12-15T21:39:59.635Z,88.46
2022-12-15T21:42:36.406Z,87.95
2022-12-15T21:45:22.074Z,87.67
2022-12-15T21:48:12.351Z,87.67
2022-12-15T21:50:45.716Z,87.87
2022-12-15T21:53:17.704Z,87.76
2022-12-15T21:55:49.710Z,87.99
2022-12-15T21:58:24.788Z,87.75
2022-12-15T22:00:56.971Z,87.86
2022-12-15T22:03:29.092Z,87.79
2022-12-15T22:06:01.090Z,87.99
2022-12-15T22:08:33.351Z,87.94
2022-12-15T22:11:23.662Z,88.17
2022-12-15T22:13:59.084Z,87.97
2022-12-15T22:16:31.076Z,87.98
2022-12-15T22:19:03.016Z,87.94
2022-12-15T22:21:34.985Z,87.89
2022-12-15T22:24:08.847Z,87.72
2022-12-15T22:26:41.766Z,87.77
2022-12-15T22:29:23.641Z,87.82
2022-12-15T22:31:55.886Z,87.47
2022-12-15T22:34:27.937Z,87.90
2022-12-15T22:37:00.119Z,87.51
2022-12-15T22:39:33.888Z,87.81
2022-12-15T22:42:06.262Z,87.34
2022-12-15T22:44:38.647Z,87.18
2022-12-15T22:47:11.295Z,87.38
2022-12-15T22:49:43.364Z,87.35
2022-12-15T22:52:20.935Z,87.85
2022-12-15T22:54:55.005Z,87.76
2022-12-15T22:57:28.672Z,87.71
2022-12-15T23:00:07.425Z,87.45
2022-12-15T23:02:43.696Z,87.49
2022-12-15T23:05:19.025Z,87.68
2022-12-15T23:07:51.122Z,87.28
2022-12-15T23:10:42.104Z,87.76
2022-12-15T23:13:13.954Z,87.72
2022-12-15T23:16:05.109Z,87.94
2022-12-15T23:18:37.259Z,87.61
2022-12-15T23:21:09.584Z,87.44
2022-12-15T23:23:41.665Z,87.66
2022-12-15T23:26:16.376Z,87.89
2022-12-15T23:28:49.491Z,88.16
2022-12-15T23:31:21.912Z,87.65
2022-12-15T23:33:54.117Z,87.50
2022-12-15T23:36:26.178Z,86.96
2022-12-15T23:38:58.426Z,86.99
2022-12-15T23:41:30.449Z,86.90
2022-12-15T23:44:02.370Z,86.83
2022-12-15T23:46:34.413Z,86.22
2022-12-15T23:49:07.239Z,85.65
2022-12-15T23:51:39.273Z,85.12
2022-12-15T23:54:11.192Z,85.46
2022-12-15T23:56:43.235Z,85.84
2022-12-15T23:59:15.284Z,85.30
